Meridian Naval Air Station
KNMM : rendu visible

Aérodrome :











RETROUVEZ-NOUS SUR...

 
LOGIN :

S'inscrire | Disclaimer

   EN    FR    IT 

 









Légende :    VFR   VFR Marginal   IFR   IFR Intensif   IFR Très Intensif
Visi : 
Plafond : 
>= 8 km
>= 3000ft
5 à 8 km
1000 à 3000 ft
1500m à 5 km
500 à 1000 ft
800 à 1500m
200 à 500 ft
< 800m
< 200 ft
Symboles :   Orages  Brouillard  Fortes neiges  Fortes précipitations  Vent > 20 kt






- Altitude de l'aérodrome : 316 ft


KNMM - Meridian Naval Air Station

DERNIER METAR :
  • 221756Z 13006KT 10SM SCT028 27/20 A3008 RMK AO2 SLP193 T02720200 10283 20178 58018

METARs EXPIRÉS :
  • 221717Z 08007KT 10SM SCT025 28/21 A3010 RMK AO2 T02780206
  • 221656Z VRB06KT 10SM FEW023 27/21 A3010 RMK AO2 SLP201 T02670206
  • 221556Z VRB04KT 10SM SCT016 25/21 A3012 RMK AO2 SLP208 T02500206
  • 221530Z 09006KT 10SM SCT014 24/20 A3013 RMK AO2 T02440200

TAF TAF KNMM
Valide du 22 à 15h jusqu'au 23 à 15h UTC


2215/2315 11006KT 9999 BKN013 QNH3010INS
FM221530 11006KT 9999 SCT022 QNH3006INS
FM221730 11006KT 9999 FEW035 SCT055 QNH2999INS
FM230000 11003KT 9999 SCT035 BKN055 BKN280 QNH3000INS
FM231100 11003KT 1600 BR OVC005 QNH3000INS
FM231330 11005KT 9999 BKN008 OVC012 QNH3004INS T30/2221Z T19/2312Z FN20035
FIR KZME / Amérique du Nord



MET'MAP, la Météo Aéronautique d'un coup d'oeil ! - Copyright ORBIFLY Décembre 2007 - Disclaimer

ORBIFLY MET'MAP TEAM :

Programmation & Développement : Alexandra Zaïnal
Sur une idée originale de : Baudouin d'Aumeries
Assistance à la programmation : Marc-Olivier Méhu
Soutien technique & logistique : Manuel Goepfert

Contact : metmap@orbifly.com




SOURCES & CREDITS :

   NOAA       Earth
Advisory